This is the latest recevied weather packets stored in our database for station/object DO1SC. If no packets are shown the sender has not sent any weather packets the latest 1 day(s).
| Time | Temp. | Humidity | Pressure | Rain* | Wind** | Luminosity | Snow |
|---|---|---|---|---|---|---|---|
| 1778054130 | 13.33° C | 83% | 1006.7 hPa | - | - | 298 W/m² | - |
| 1778053522 | 12.78° C | 84% | 1006.7 hPa | - | - | 282 W/m² | - |
| 1778052937 | 12.78° C | 84% | 1006.6 hPa | - | - | 254 W/m² | - |
| 1778051717 | 11.67° C | 88% | 1006.6 hPa | - | - | 179 W/m² | - |
| 1778051129 | 11.67° C | 88% | 1006.7 hPa | - | - | 127 W/m² | - |
| 1778050520 | 11.67° C | 88% | 1006.7 hPa | - | - | 98 W/m² | - |
| 1778049932 | 11.67° C | 88% | 1006.8 hPa | - | - | 167 W/m² | - |
| 1778048735 | 11.11° C | 91% | 1006.8 hPa | - | - | 78 W/m² | - |
| 1778047519 | 11.11° C | 93% | 1006.8 hPa | - | - | 74 W/m² | - |
| 1778046323 | 10.56° C | 93% | 1006.8 hPa | - | - | 22 W/m² | - |
| 1778045737 | 10.56° C | 93% | 1006.9 hPa | - | - | 18 W/m² | - |
| 1778044517 | 10.56° C | 93% | 1006.6 hPa | - | - | 35 W/m² | - |
| 1778043929 | 10.56° C | 93% | 1006.7 hPa | - | - | 38 W/m² | - |
| 1778042733 | 10.56° C | 94% | 1006.5 hPa | - | - | 33 W/m² | - |
| 1778042127 | 10.56° C | 95% | 1006.4 hPa | - | - | 20 W/m² | - |
| 1778040928 | 10.56° C | 96% | 1006.4 hPa | - | - | 4 W/m² | - |
| 1778039730 | 10.56° C | 96% | 1006.3 hPa | - | - | 2 W/m² | - |
| 1778039122 | 10.56° C | 96% | 1006.3 hPa | - | - | 1 W/m² | - |
| 1778036120 | 11.11° C | 95% | 1006.4 hPa | - | - | 0 W/m² | - |
| 1778035532 | 11.11° C | 95% | 1006.4 hPa | - | - | 0 W/m² | - |
| 1778034923 | 11.11° C | 95% | 1006.4 hPa | - | - | 0 W/m² | - |
| 1778034335 | 11.11° C | 95% | 1006.5 hPa | - | - | 0 W/m² | - |
| 1778033730 | 11.11° C | 95% | 1006.5 hPa | - | - | 0 W/m² | - |
| 1778033118 | 11.11° C | 95% | 1006.5 hPa | - | - | 0 W/m² | - |
| 1778031921 | 11.11° C | 94% | 1006.6 hPa | - | - | 0 W/m² | - |
* Rain since midnight (hover to see other rain measurements)
** Current wind speed in m/s (hover to see current wind gust speed)